Terminal Aerodrome Forecast
Issued by NWS Cheyenne, WY

Home | Current Version | Previous Version | Text Only | Print | Product List | Glossary On
Versions: 1 2 3 4 5 6 7 8 9 10 11 12 13 14 15 16 17 18 19 20 21 22 23 24 25 26 27 28 29 30 31 32 33 34 35 36 37 38 39 40 41 42 43 44 45 46 47 48 49
000
FTUS45 KCYS 251740
TAFCYS
TAF
KCYS 251740Z 2518/2618 03011KT 3/4SM -SN BR OVC015
      TEMPO 2518/2522 1/2SM SN FZFG VV004
     FM252200 03015KT 1/2SM SN FZFG VV005
     FM260200 03010KT 1SM -SN BR OVC008
     FM260800 03008KT 1/2SM -SN FZFG OVC005
     FM261500 05007KT 3SM BR OVC015=

USA.gov is the U.S. government's official web portal to all federal, state and local government web resources and services.